sensor_id;sensor_type;location;lat;lon;timestamp;P1;durP1;ratioP1;P2;durP2;ratioP2
9156;SDS011;4613;48.392;9.998;2022-12-26T00:00:32;7.60;;;4.37;;
9156;SDS011;4613;48.392;9.998;2022-12-26T00:03:21;5.97;;;3.80;;
9156;SDS011;4613;48.392;9.998;2022-12-26T00:06:14;5.93;;;4.00;;
9156;SDS011;4613;48.392;9.998;2022-12-26T00:09:09;5.00;;;3.73;;
9156;SDS011;4613;48.392;9.998;2022-12-26T00:11:59;5.13;;;3.90;;
9156;SDS011;4613;48.392;9.998;2022-12-26T00:14:48;3.93;;;3.20;;
9156;SDS011;4613;48.392;9.998;2022-12-26T00:17:38;4.80;;;3.90;;
9156;SDS011;4613;48.392;9.998;2022-12-26T00:20:27;4.67;;;3.60;;
9156;SDS011;4613;48.392;9.998;2022-12-26T00:23:17;4.27;;;3.80;;
9156;SDS011;4613;48.392;9.998;2022-12-26T00:26:17;5.53;;;3.60;;
9156;SDS011;4613;48.392;9.998;2022-12-26T00:29:09;5.53;;;3.80;;
9156;SDS011;4613;48.392;9.998;2022-12-26T00:31:59;6.33;;;4.20;;
9156;SDS011;4613;48.392;9.998;2022-12-26T00:34:48;6.33;;;4.10;;
9156;SDS011;4613;48.392;9.998;2022-12-26T00:37:37;4.90;;;3.87;;
9156;SDS011;4613;48.392;9.998;2022-12-26T00:40:27;7.22;;;4.22;;
9156;SDS011;4613;48.392;9.998;2022-12-26T00:43:17;7.13;;;4.30;;
9156;SDS011;4613;48.392;9.998;2022-12-26T00:46:07;6.37;;;4.50;;
9156;SDS011;4613;48.392;9.998;2022-12-26T00:48:58;6.87;;;4.00;;
9156;SDS011;4613;48.392;9.998;2022-12-26T00:51:47;8.37;;;4.73;;
9156;SDS011;4613;48.392;9.998;2022-12-26T00:54:37;8.17;;;4.60;;
9156;SDS011;4613;48.392;9.998;2022-12-26T00:57:26;9.33;;;4.77;;
9156;SDS011;4613;48.392;9.998;2022-12-26T01:00:15;7.20;;;4.27;;
9156;SDS011;4613;48.392;9.998;2022-12-26T01:03:08;7.50;;;4.50;;
9156;SDS011;4613;48.392;9.998;2022-12-26T01:06:00;8.03;;;4.57;;
9156;SDS011;4613;48.392;9.998;2022-12-26T01:08:51;7.23;;;4.70;;
9156;SDS011;4613;48.392;9.998;2022-12-26T01:11:41;6.53;;;4.57;;
9156;SDS011;4613;48.392;9.998;2022-12-26T01:14:31;7.17;;;4.27;;
9156;SDS011;4613;48.392;9.998;2022-12-26T01:17:21;5.63;;;4.03;;
9156;SDS011;4613;48.392;9.998;2022-12-26T01:20:10;5.10;;;3.93;;
9156;SDS011;4613;48.392;9.998;2022-12-26T01:22:59;8.53;;;4.17;;
9156;SDS011;4613;48.392;9.998;2022-12-26T01:25:49;4.87;;;3.67;;
9156;SDS011;4613;48.392;9.998;2022-12-26T01:28:38;4.50;;;3.70;;
9156;SDS011;4613;48.392;9.998;2022-12-26T01:31:27;5.10;;;4.00;;
9156;SDS011;4613;48.392;9.998;2022-12-26T01:34:16;4.35;;;3.15;;
9156;SDS011;4613;48.392;9.998;2022-12-26T01:37:05;7.00;;;4.33;;
9156;SDS011;4613;48.392;9.998;2022-12-26T01:39:55;7.17;;;4.70;;
9156;SDS011;4613;48.392;9.998;2022-12-26T01:42:44;7.00;;;4.30;;
9156;SDS011;4613;48.392;9.998;2022-12-26T01:45:34;7.07;;;4.03;;
9156;SDS011;4613;48.392;9.998;2022-12-26T01:48:24;8.63;;;4.77;;
9156;SDS011;4613;48.392;9.998;2022-12-26T01:51:21;5.63;;;3.53;;
9156;SDS011;4613;48.392;9.998;2022-12-26T01:54:13;5.65;;;3.40;;
9156;SDS011;4613;48.392;9.998;2022-12-26T01:57:06;6.18;;;3.83;;
9156;SDS011;4613;48.392;9.998;2022-12-26T02:00:00;7.00;;;4.25;;
9156;SDS011;4613;48.392;9.998;2022-12-26T02:03:03;8.05;;;4.43;;
9156;SDS011;4613;48.392;9.998;2022-12-26T02:06:14;5.15;;;3.90;;
9156;SDS011;4613;48.392;9.998;2022-12-26T02:09:05;5.80;;;3.50;;
9156;SDS011;4613;48.392;9.998;2022-12-26T02:11:57;6.38;;;4.13;;
9156;SDS011;4613;48.392;9.998;2022-12-26T02:15:12;5.50;;;3.95;;
9156;SDS011;4613;48.392;9.998;2022-12-26T02:18:04;5.63;;;4.00;;
9156;SDS011;4613;48.392;9.998;2022-12-26T02:21:02;5.63;;;3.78;;
9156;SDS011;4613;48.392;9.998;2022-12-26T02:30:38;3.80;;;3.38;;
9156;SDS011;4613;48.392;9.998;2022-12-26T02:34:18;5.68;;;3.63;;
9156;SDS011;4613;48.392;9.998;2022-12-26T02:40:25;6.20;;;3.97;;
9156;SDS011;4613;48.392;9.998;2022-12-26T02:46:31;4.93;;;3.55;;
9156;SDS011;4613;48.392;9.998;2022-12-26T02:49:52;4.07;;;3.17;;
9156;SDS011;4613;48.392;9.998;2022-12-26T02:53:15;5.65;;;3.28;;
9156;SDS011;4613;48.392;9.998;2022-12-26T02:56:36;5.05;;;3.50;;
9156;SDS011;4613;48.392;9.998;2022-12-26T02:59:55;5.00;;;3.92;;
9156;SDS011;4613;48.392;9.998;2022-12-26T03:03:16;4.80;;;3.55;;
9156;SDS011;4613;48.392;9.998;2022-12-26T03:06:28;5.55;;;3.70;;
9156;SDS011;4613;48.392;9.998;2022-12-26T03:09:39;4.93;;;4.00;;
9156;SDS011;4613;48.392;9.998;2022-12-26T03:12:56;6.43;;;3.72;;
9156;SDS011;4613;48.392;9.998;2022-12-26T03:16:02;7.90;;;4.43;;
9156;SDS011;4613;48.392;9.998;2022-12-26T03:19:15;6.35;;;3.75;;
9156;SDS011;4613;48.392;9.998;2022-12-26T03:22:05;5.32;;;3.83;;
9156;SDS011;4613;48.392;9.998;2022-12-26T03:28:37;4.57;;;3.40;;
9156;SDS011;4613;48.392;9.998;2022-12-26T03:31:27;5.13;;;3.60;;
9156;SDS011;4613;48.392;9.998;2022-12-26T03:34:17;4.00;;;3.43;;
9156;SDS011;4613;48.392;9.998;2022-12-26T03:43:23;4.95;;;3.08;;
9156;SDS011;4613;48.392;9.998;2022-12-26T03:50:42;3.60;;;2.90;;
9156;SDS011;4613;48.392;9.998;2022-12-26T03:53:49;3.85;;;2.90;;
9156;SDS011;4613;48.392;9.998;2022-12-26T03:57:04;2.95;;;2.65;;
9156;SDS011;4613;48.392;9.998;2022-12-26T04:00:16;5.57;;;3.17;;
9156;SDS011;4613;48.392;9.998;2022-12-26T04:03:25;2.47;;;2.17;;
9156;SDS011;4613;48.392;9.998;2022-12-26T04:06:56;3.72;;;2.80;;
9156;SDS011;4613;48.392;9.998;2022-12-26T04:10:12;3.40;;;2.80;;
9156;SDS011;4613;48.392;9.998;2022-12-26T04:13:38;4.38;;;2.85;;
9156;SDS011;4613;48.392;9.998;2022-12-26T04:17:00;4.47;;;2.72;;
9156;SDS011;4613;48.392;9.998;2022-12-26T04:26:50;3.22;;;2.55;;
9156;SDS011;4613;48.392;9.998;2022-12-26T04:30:03;2.60;;;2.37;;
9156;SDS011;4613;48.392;9.998;2022-12-26T04:33:16;3.37;;;2.70;;
9156;SDS011;4613;48.392;9.998;2022-12-26T04:36:31;3.00;;;2.40;;
9156;SDS011;4613;48.392;9.998;2022-12-26T04:39:44;3.65;;;2.78;;
9156;SDS011;4613;48.392;9.998;2022-12-26T04:42:55;3.10;;;2.67;;
9156;SDS011;4613;48.392;9.998;2022-12-26T04:46:04;3.57;;;2.97;;
9156;SDS011;4613;48.392;9.998;2022-12-26T04:48:54;3.07;;;2.70;;
9156;SDS011;4613;48.392;9.998;2022-12-26T04:52:05;4.23;;;3.30;;
9156;SDS011;4613;48.392;9.998;2022-12-26T04:54:56;4.00;;;2.83;;
9156;SDS011;4613;48.392;9.998;2022-12-26T04:57:45;3.35;;;2.63;;
9156;SDS011;4613;48.392;9.998;2022-12-26T05:00:34;3.77;;;2.97;;
9156;SDS011;4613;48.392;9.998;2022-12-26T05:03:24;3.67;;;2.73;;
9156;SDS011;4613;48.392;9.998;2022-12-26T05:06:32;3.30;;;2.47;;
9156;SDS011;4613;48.392;9.998;2022-12-26T05:09:40;3.60;;;2.50;;
9156;SDS011;4613;48.392;9.998;2022-12-26T05:12:30;2.13;;;1.83;;
9156;SDS011;4613;48.392;9.998;2022-12-26T05:15:20;3.00;;;2.53;;
9156;SDS011;4613;48.392;9.998;2022-12-26T05:18:09;2.77;;;2.43;;
9156;SDS011;4613;48.392;9.998;2022-12-26T05:21:17;4.80;;;3.23;;
9156;SDS011;4613;48.392;9.998;2022-12-26T05:24:33;4.00;;;3.07;;
9156;SDS011;4613;48.392;9.998;2022-12-26T05:27:45;3.33;;;2.43;;
9156;SDS011;4613;48.392;9.998;2022-12-26T05:30:53;4.27;;;2.87;;
9156;SDS011;4613;48.392;9.998;2022-12-26T05:33:44;3.83;;;2.80;;
9156;SDS011;4613;48.392;9.998;2022-12-26T05:36:54;3.70;;;2.60;;
9156;SDS011;4613;48.392;9.998;2022-12-26T05:39:46;4.00;;;2.70;;
9156;SDS011;4613;48.392;9.998;2022-12-26T05:42:35;3.07;;;2.70;;
9156;SDS011;4613;48.392;9.998;2022-12-26T05:45:25;3.83;;;2.53;;
9156;SDS011;4613;48.392;9.998;2022-12-26T05:48:17;3.23;;;2.50;;
9156;SDS011;4613;48.392;9.998;2022-12-26T05:51:06;3.53;;;2.70;;
9156;SDS011;4613;48.392;9.998;2022-12-26T05:53:57;4.13;;;2.70;;
9156;SDS011;4613;48.392;9.998;2022-12-26T05:56:47;3.17;;;2.73;;
9156;SDS011;4613;48.392;9.998;2022-12-26T05:59:37;4.73;;;2.97;;
9156;SDS011;4613;48.392;9.998;2022-12-26T06:02:28;2.57;;;2.30;;
9156;SDS011;4613;48.392;9.998;2022-12-26T06:05:17;5.13;;;3.03;;
9156;SDS011;4613;48.392;9.998;2022-12-26T06:08:07;5.20;;;2.80;;
9156;SDS011;4613;48.392;9.998;2022-12-26T06:10:56;3.80;;;2.70;;
9156;SDS011;4613;48.392;9.998;2022-12-26T06:13:45;3.77;;;2.57;;
9156;SDS011;4613;48.392;9.998;2022-12-26T06:16:34;4.43;;;3.00;;
9156;SDS011;4613;48.392;9.998;2022-12-26T06:19:23;5.18;;;3.35;;
9156;SDS011;4613;48.392;9.998;2022-12-26T06:22:12;4.03;;;2.90;;
9156;SDS011;4613;48.392;9.998;2022-12-26T06:25:01;4.72;;;3.42;;
9156;SDS011;4613;48.392;9.998;2022-12-26T06:27:51;5.40;;;3.53;;
9156;SDS011;4613;48.392;9.998;2022-12-26T06:30:41;2.83;;;2.50;;
9156;SDS011;4613;48.392;9.998;2022-12-26T06:33:30;4.85;;;3.33;;
9156;SDS011;4613;48.392;9.998;2022-12-26T06:36:20;4.40;;;3.42;;
9156;SDS011;4613;48.392;9.998;2022-12-26T06:39:11;5.65;;;3.75;;
9156;SDS011;4613;48.392;9.998;2022-12-26T06:42:00;5.57;;;3.67;;
9156;SDS011;4613;48.392;9.998;2022-12-26T06:44:49;4.55;;;3.38;;
9156;SDS011;4613;48.392;9.998;2022-12-26T06:47:39;5.33;;;3.53;;
9156;SDS011;4613;48.392;9.998;2022-12-26T06:50:28;4.93;;;3.88;;
9156;SDS011;4613;48.392;9.998;2022-12-26T06:53:19;5.78;;;3.75;;
9156;SDS011;4613;48.392;9.998;2022-12-26T06:56:14;6.50;;;3.92;;
9156;SDS011;4613;48.392;9.998;2022-12-26T06:59:11;5.90;;;3.57;;
9156;SDS011;4613;48.392;9.998;2022-12-26T07:02:03;5.30;;;3.73;;
9156;SDS011;4613;48.392;9.998;2022-12-26T07:04:53;4.35;;;3.55;;
9156;SDS011;4613;48.392;9.998;2022-12-26T07:07:42;4.40;;;3.33;;
9156;SDS011;4613;48.392;9.998;2022-12-26T07:10:35;4.82;;;3.60;;
9156;SDS011;4613;48.392;9.998;2022-12-26T07:13:24;3.90;;;3.03;;
9156;SDS011;4613;48.392;9.998;2022-12-26T07:16:14;5.23;;;4.10;;
9156;SDS011;4613;48.392;9.998;2022-12-26T07:19:04;4.90;;;3.35;;
9156;SDS011;4613;48.392;9.998;2022-12-26T07:21:54;4.80;;;3.40;;
9156;SDS011;4613;48.392;9.998;2022-12-26T07:24:43;6.13;;;3.80;;
9156;SDS011;4613;48.392;9.998;2022-12-26T07:27:32;4.70;;;3.47;;
9156;SDS011;4613;48.392;9.998;2022-12-26T07:30:21;5.57;;;3.10;;
9156;SDS011;4613;48.392;9.998;2022-12-26T07:33:11;3.73;;;3.23;;
9156;SDS011;4613;48.392;9.998;2022-12-26T07:36:00;4.17;;;3.37;;
9156;SDS011;4613;48.392;9.998;2022-12-26T07:39:13;7.20;;;3.77;;
9156;SDS011;4613;48.392;9.998;2022-12-26T07:42:05;6.43;;;4.20;;
9156;SDS011;4613;48.392;9.998;2022-12-26T07:44:54;5.77;;;4.00;;
9156;SDS011;4613;48.392;9.998;2022-12-26T07:47:47;8.00;;;3.73;;
9156;SDS011;4613;48.392;9.998;2022-12-26T07:50:40;5.80;;;3.93;;
9156;SDS011;4613;48.392;9.998;2022-12-26T07:53:36;6.30;;;3.77;;
9156;SDS011;4613;48.392;9.998;2022-12-26T07:56:26;4.63;;;3.30;;
9156;SDS011;4613;48.392;9.998;2022-12-26T07:59:16;5.20;;;3.60;;
9156;SDS011;4613;48.392;9.998;2022-12-26T08:02:10;6.03;;;3.67;;
9156;SDS011;4613;48.392;9.998;2022-12-26T08:04:59;5.30;;;3.83;;
9156;SDS011;4613;48.392;9.998;2022-12-26T08:07:49;4.97;;;3.60;;
9156;SDS011;4613;48.392;9.998;2022-12-26T08:10:41;5.77;;;3.93;;
9156;SDS011;4613;48.392;9.998;2022-12-26T08:13:34;5.80;;;4.23;;
9156;SDS011;4613;48.392;9.998;2022-12-26T08:16:25;6.63;;;4.37;;
9156;SDS011;4613;48.392;9.998;2022-12-26T08:19:15;5.47;;;3.73;;
9156;SDS011;4613;48.392;9.998;2022-12-26T08:22:04;4.90;;;3.53;;
9156;SDS011;4613;48.392;9.998;2022-12-26T08:24:53;6.40;;;4.23;;
9156;SDS011;4613;48.392;9.998;2022-12-26T08:27:44;8.10;;;4.77;;
9156;SDS011;4613;48.392;9.998;2022-12-26T08:30:40;5.03;;;3.90;;
9156;SDS011;4613;48.392;9.998;2022-12-26T08:33:31;5.47;;;3.77;;
9156;SDS011;4613;48.392;9.998;2022-12-26T08:36:20;4.83;;;3.13;;
9156;SDS011;4613;48.392;9.998;2022-12-26T08:39:09;5.63;;;2.97;;
9156;SDS011;4613;48.392;9.998;2022-12-26T08:42:02;4.63;;;3.33;;
9156;SDS011;4613;48.392;9.998;2022-12-26T08:44:51;4.80;;;3.40;;
9156;SDS011;4613;48.392;9.998;2022-12-26T08:47:41;3.50;;;3.20;;
9156;SDS011;4613;48.392;9.998;2022-12-26T08:50:30;5.00;;;3.50;;
9156;SDS011;4613;48.392;9.998;2022-12-26T08:53:19;5.17;;;3.53;;
9156;SDS011;4613;48.392;9.998;2022-12-26T08:56:10;4.63;;;3.30;;
9156;SDS011;4613;48.392;9.998;2022-12-26T08:59:02;3.93;;;3.30;;
9156;SDS011;4613;48.392;9.998;2022-12-26T09:01:52;2.90;;;2.40;;
9156;SDS011;4613;48.392;9.998;2022-12-26T09:04:42;3.77;;;2.83;;
9156;SDS011;4613;48.392;9.998;2022-12-26T09:07:33;3.50;;;2.57;;
9156;SDS011;4613;48.392;9.998;2022-12-26T09:10:23;3.83;;;2.90;;
9156;SDS011;4613;48.392;9.998;2022-12-26T09:13:12;3.13;;;2.83;;
9156;SDS011;4613;48.392;9.998;2022-12-26T09:16:23;5.73;;;3.20;;
9156;SDS011;4613;48.392;9.998;2022-12-26T09:19:14;3.87;;;3.23;;
9156;SDS011;4613;48.392;9.998;2022-12-26T09:22:07;4.40;;;3.37;;
9156;SDS011;4613;48.392;9.998;2022-12-26T09:25:15;4.23;;;3.33;;
9156;SDS011;4613;48.392;9.998;2022-12-26T09:28:11;5.73;;;3.40;;
9156;SDS011;4613;48.392;9.998;2022-12-26T09:31:02;4.63;;;3.03;;
9156;SDS011;4613;48.392;9.998;2022-12-26T09:33:54;5.03;;;3.10;;
9156;SDS011;4613;48.392;9.998;2022-12-26T09:36:44;4.23;;;3.40;;
9156;SDS011;4613;48.392;9.998;2022-12-26T09:39:33;6.27;;;3.30;;
9156;SDS011;4613;48.392;9.998;2022-12-26T09:45:44;5.13;;;3.43;;
9156;SDS011;4613;48.392;9.998;2022-12-26T09:48:57;4.83;;;3.30;;
9156;SDS011;4613;48.392;9.998;2022-12-26T09:52:01;5.27;;;3.60;;
9156;SDS011;4613;48.392;9.998;2022-12-26T09:54:58;3.63;;;3.00;;
9156;SDS011;4613;48.392;9.998;2022-12-26T09:57:51;4.33;;;3.23;;
9156;SDS011;4613;48.392;9.998;2022-12-26T10:00:45;6.73;;;3.77;;
9156;SDS011;4613;48.392;9.998;2022-12-26T10:03:43;5.27;;;3.50;;
9156;SDS011;4613;48.392;9.998;2022-12-26T10:07:09;4.33;;;3.30;;
9156;SDS011;4613;48.392;9.998;2022-12-26T10:13:37;3.83;;;2.97;;
9156;SDS011;4613;48.392;9.998;2022-12-26T10:16:48;4.77;;;3.13;;
9156;SDS011;4613;48.392;9.998;2022-12-26T10:20:31;5.53;;;4.10;;
9156;SDS011;4613;48.392;9.998;2022-12-26T10:29:32;5.63;;;3.23;;
9156;SDS011;4613;48.392;9.998;2022-12-26T10:32:29;5.60;;;3.33;;
9156;SDS011;4613;48.392;9.998;2022-12-26T10:35:31;3.50;;;3.07;;
9156;SDS011;4613;48.392;9.998;2022-12-26T10:39:00;5.13;;;3.27;;
9156;SDS011;4613;48.392;9.998;2022-12-26T10:41:44;5.17;;;3.50;;
9156;SDS011;4613;48.392;9.998;2022-12-26T10:44:42;3.67;;;3.27;;
9156;SDS011;4613;48.392;9.998;2022-12-26T10:50:29;4.67;;;3.53;;
9156;SDS011;4613;48.392;9.998;2022-12-26T10:53:20;4.77;;;3.83;;
9156;SDS011;4613;48.392;9.998;2022-12-26T10:59:53;4.97;;;3.27;;
9156;SDS011;4613;48.392;9.998;2022-12-26T11:02:45;4.60;;;3.40;;
9156;SDS011;4613;48.392;9.998;2022-12-26T11:05:56;5.43;;;3.53;;
9156;SDS011;4613;48.392;9.998;2022-12-26T11:08:52;5.27;;;3.30;;
9156;SDS011;4613;48.392;9.998;2022-12-26T11:11:47;5.40;;;3.47;;
9156;SDS011;4613;48.392;9.998;2022-12-26T11:14:40;4.50;;;3.60;;
9156;SDS011;4613;48.392;9.998;2022-12-26T11:17:35;3.47;;;3.03;;
9156;SDS011;4613;48.392;9.998;2022-12-26T11:20:30;4.53;;;3.27;;
9156;SDS011;4613;48.392;9.998;2022-12-26T11:23:27;5.37;;;3.93;;
9156;SDS011;4613;48.392;9.998;2022-12-26T11:26:28;4.27;;;3.57;;
9156;SDS011;4613;48.392;9.998;2022-12-26T11:29:21;5.90;;;3.73;;
9156;SDS011;4613;48.392;9.998;2022-12-26T11:32:16;5.87;;;3.97;;
9156;SDS011;4613;48.392;9.998;2022-12-26T11:35:15;6.30;;;3.83;;
9156;SDS011;4613;48.392;9.998;2022-12-26T11:38:12;6.53;;;3.80;;
9156;SDS011;4613;48.392;9.998;2022-12-26T11:44:28;5.43;;;3.73;;
9156;SDS011;4613;48.392;9.998;2022-12-26T11:47:21;5.97;;;4.07;;
9156;SDS011;4613;48.392;9.998;2022-12-26T11:50:15;5.90;;;4.20;;
9156;SDS011;4613;48.392;9.998;2022-12-26T11:53:18;5.50;;;3.90;;
9156;SDS011;4613;48.392;9.998;2022-12-26T11:56:14;6.27;;;3.60;;
9156;SDS011;4613;48.392;9.998;2022-12-26T11:59:17;5.40;;;4.23;;
9156;SDS011;4613;48.392;9.998;2022-12-26T12:02:13;5.60;;;3.93;;
9156;SDS011;4613;48.392;9.998;2022-12-26T12:05:15;5.47;;;3.87;;
9156;SDS011;4613;48.392;9.998;2022-12-26T12:08:29;5.10;;;3.50;;
9156;SDS011;4613;48.392;9.998;2022-12-26T12:11:28;6.77;;;3.93;;
9156;SDS011;4613;48.392;9.998;2022-12-26T12:14:45;7.03;;;4.10;;
9156;SDS011;4613;48.392;9.998;2022-12-26T12:27:28;5.83;;;3.80;;
9156;SDS011;4613;48.392;9.998;2022-12-26T12:30:23;6.90;;;4.33;;
9156;SDS011;4613;48.392;9.998;2022-12-26T12:33:25;5.37;;;4.00;;
9156;SDS011;4613;48.392;9.998;2022-12-26T12:36:36;4.83;;;3.80;;
9156;SDS011;4613;48.392;9.998;2022-12-26T12:39:54;6.20;;;3.87;;
9156;SDS011;4613;48.392;9.998;2022-12-26T12:43:14;4.63;;;3.53;;
9156;SDS011;4613;48.392;9.998;2022-12-26T12:52:37;5.33;;;3.23;;
9156;SDS011;4613;48.392;9.998;2022-12-26T13:01:58;3.77;;;2.77;;
9156;SDS011;4613;48.392;9.998;2022-12-26T13:05:02;3.37;;;2.50;;
9156;SDS011;4613;48.392;9.998;2022-12-26T13:11:48;2.00;;;1.90;;
9156;SDS011;4613;48.392;9.998;2022-12-26T13:14:54;1.93;;;1.83;;
9156;SDS011;4613;48.392;9.998;2022-12-26T13:21:21;1.50;;;1.40;;
9156;SDS011;4613;48.392;9.998;2022-12-26T13:24:26;2.57;;;1.63;;
9156;SDS011;4613;48.392;9.998;2022-12-26T13:27:31;3.13;;;1.90;;
9156;SDS011;4613;48.392;9.998;2022-12-26T13:30:25;2.03;;;1.77;;
9156;SDS011;4613;48.392;9.998;2022-12-26T13:33:16;2.60;;;2.20;;
9156;SDS011;4613;48.392;9.998;2022-12-26T13:36:05;2.53;;;2.23;;
9156;SDS011;4613;48.392;9.998;2022-12-26T13:41:50;2.30;;;2.10;;
9156;SDS011;4613;48.392;9.998;2022-12-26T13:54:31;2.80;;;2.47;;
9156;SDS011;4613;48.392;9.998;2022-12-26T14:00:44;3.30;;;2.80;;
9156;SDS011;4613;48.392;9.998;2022-12-26T14:03:50;2.70;;;2.50;;
9156;SDS011;4613;48.392;9.998;2022-12-26T14:09:57;3.03;;;2.50;;
9156;SDS011;4613;48.392;9.998;2022-12-26T14:19:54;2.80;;;2.27;;
9156;SDS011;4613;48.392;9.998;2022-12-26T14:23:00;3.97;;;2.87;;
9156;SDS011;4613;48.392;9.998;2022-12-26T14:26:17;4.87;;;2.60;;
9156;SDS011;4613;48.392;9.998;2022-12-26T14:35:45;3.43;;;2.40;;
9156;SDS011;4613;48.392;9.998;2022-12-26T15:00:30;1.03;;;1.03;;
9156;SDS011;4613;48.392;9.998;2022-12-26T15:25:46;1.93;;;1.60;;
9156;SDS011;4613;48.392;9.998;2022-12-26T15:31:58;1.00;;;1.00;;
9156;SDS011;4613;48.392;9.998;2022-12-26T15:38:13;1.07;;;1.00;;
9156;SDS011;4613;48.392;9.998;2022-12-26T15:54:53;2.57;;;1.60;;
9156;SDS011;4613;48.392;9.998;2022-12-26T15:58:05;1.00;;;1.00;;
9156;SDS011;4613;48.392;9.998;2022-12-26T16:01:13;0.90;;;0.90;;
9156;SDS011;4613;48.392;9.998;2022-12-26T16:04:37;1.03;;;0.87;;
9156;SDS011;4613;48.392;9.998;2022-12-26T16:10:44;1.53;;;1.03;;
9156;SDS011;4613;48.392;9.998;2022-12-26T16:13:34;0.80;;;0.80;;
9156;SDS011;4613;48.392;9.998;2022-12-26T16:16:25;1.00;;;0.90;;
9156;SDS011;4613;48.392;9.998;2022-12-26T16:19:27;1.20;;;0.80;;
9156;SDS011;4613;48.392;9.998;2022-12-26T16:22:20;0.90;;;0.90;;
9156;SDS011;4613;48.392;9.998;2022-12-26T16:25:31;0.80;;;0.80;;
9156;SDS011;4613;48.392;9.998;2022-12-26T16:28:24;0.90;;;0.90;;
9156;SDS011;4613;48.392;9.998;2022-12-26T16:31:28;0.80;;;0.80;;
9156;SDS011;4613;48.392;9.998;2022-12-26T16:34:21;2.80;;;1.20;;
9156;SDS011;4613;48.392;9.998;2022-12-26T16:37:18;0.87;;;0.87;;
9156;SDS011;4613;48.392;9.998;2022-12-26T16:45:55;1.30;;;1.20;;
9156;SDS011;4613;48.392;9.998;2022-12-26T16:48:55;0.90;;;0.90;;
9156;SDS011;4613;48.392;9.998;2022-12-26T16:51:48;0.97;;;0.97;;
9156;SDS011;4613;48.392;9.998;2022-12-26T16:54:40;1.20;;;1.10;;
9156;SDS011;4613;48.392;9.998;2022-12-26T16:57:30;1.07;;;0.90;;
9156;SDS011;4613;48.392;9.998;2022-12-26T17:00:27;0.90;;;0.90;;
9156;SDS011;4613;48.392;9.998;2022-12-26T17:03:21;1.00;;;0.87;;
9156;SDS011;4613;48.392;9.998;2022-12-26T17:06:22;0.73;;;0.73;;
9156;SDS011;4613;48.392;9.998;2022-12-26T17:09:20;0.83;;;0.83;;
9156;SDS011;4613;48.392;9.998;2022-12-26T17:12:20;1.20;;;1.10;;
9156;SDS011;4613;48.392;9.998;2022-12-26T17:15:26;0.97;;;0.97;;
9156;SDS011;4613;48.392;9.998;2022-12-26T17:21:31;1.00;;;1.00;;
9156;SDS011;4613;48.392;9.998;2022-12-26T17:24:25;1.20;;;1.20;;
9156;SDS011;4613;48.392;9.998;2022-12-26T17:30:18;1.10;;;1.00;;
9156;SDS011;4613;48.392;9.998;2022-12-26T17:33:17;0.93;;;0.93;;
9156;SDS011;4613;48.392;9.998;2022-12-26T17:36:10;0.93;;;0.93;;
9156;SDS011;4613;48.392;9.998;2022-12-26T17:39:09;1.30;;;1.20;;
9156;SDS011;4613;48.392;9.998;2022-12-26T17:42:00;1.40;;;0.93;;
9156;SDS011;4613;48.392;9.998;2022-12-26T17:44:59;0.83;;;0.83;;
9156;SDS011;4613;48.392;9.998;2022-12-26T17:47:53;0.97;;;0.97;;
9156;SDS011;4613;48.392;9.998;2022-12-26T17:50:45;1.30;;;0.93;;
9156;SDS011;4613;48.392;9.998;2022-12-26T17:53:45;1.00;;;1.00;;
9156;SDS011;4613;48.392;9.998;2022-12-26T17:59:52;0.83;;;0.83;;
9156;SDS011;4613;48.392;9.998;2022-12-26T18:02:49;0.60;;;0.60;;
9156;SDS011;4613;48.392;9.998;2022-12-26T18:06:12;0.70;;;0.70;;
9156;SDS011;4613;48.392;9.998;2022-12-26T18:09:46;0.80;;;0.80;;
9156;SDS011;4613;48.392;9.998;2022-12-26T18:12:39;0.90;;;0.90;;
9156;SDS011;4613;48.392;9.998;2022-12-26T18:15:29;0.90;;;0.90;;
9156;SDS011;4613;48.392;9.998;2022-12-26T18:21:25;0.90;;;0.90;;
9156;SDS011;4613;48.392;9.998;2022-12-26T18:24:17;1.20;;;1.10;;
9156;SDS011;4613;48.392;9.998;2022-12-26T18:27:16;1.00;;;0.97;;
9156;SDS011;4613;48.392;9.998;2022-12-26T18:30:15;1.03;;;0.90;;
9156;SDS011;4613;48.392;9.998;2022-12-26T18:33:07;1.13;;;1.10;;
9156;SDS011;4613;48.392;9.998;2022-12-26T18:35:58;1.20;;;1.10;;
9156;SDS011;4613;48.392;9.998;2022-12-26T18:38:54;1.30;;;1.20;;
9156;SDS011;4613;48.392;9.998;2022-12-26T18:41:47;1.13;;;1.07;;
9156;SDS011;4613;48.392;9.998;2022-12-26T18:44:40;1.60;;;1.23;;
9156;SDS011;4613;48.392;9.998;2022-12-26T18:47:30;0.90;;;0.90;;
9156;SDS011;4613;48.392;9.998;2022-12-26T18:50:19;1.30;;;1.30;;
9156;SDS011;4613;48.392;9.998;2022-12-26T18:53:12;1.30;;;1.20;;
9156;SDS011;4613;48.392;9.998;2022-12-26T18:56:01;1.50;;;1.30;;
9156;SDS011;4613;48.392;9.998;2022-12-26T18:58:54;1.10;;;1.00;;
9156;SDS011;4613;48.392;9.998;2022-12-26T19:01:44;1.67;;;1.20;;
9156;SDS011;4613;48.392;9.998;2022-12-26T19:04:33;1.30;;;1.20;;
9156;SDS011;4613;48.392;9.998;2022-12-26T19:07:26;2.30;;;1.30;;
9156;SDS011;4613;48.392;9.998;2022-12-26T19:10:16;1.43;;;1.00;;
9156;SDS011;4613;48.392;9.998;2022-12-26T19:13:08;1.00;;;1.00;;
9156;SDS011;4613;48.392;9.998;2022-12-26T19:19:06;0.90;;;0.90;;
9156;SDS011;4613;48.392;9.998;2022-12-26T19:22:04;1.20;;;1.10;;
9156;SDS011;4613;48.392;9.998;2022-12-26T19:24:54;1.40;;;1.20;;
9156;SDS011;4613;48.392;9.998;2022-12-26T19:27:44;1.00;;;1.00;;
9156;SDS011;4613;48.392;9.998;2022-12-26T19:30:37;2.83;;;1.40;;
9156;SDS011;4613;48.392;9.998;2022-12-26T19:33:27;0.90;;;0.90;;
9156;SDS011;4613;48.392;9.998;2022-12-26T19:36:18;1.30;;;1.20;;
9156;SDS011;4613;48.392;9.998;2022-12-26T19:39:10;0.70;;;0.70;;
9156;SDS011;4613;48.392;9.998;2022-12-26T19:42:00;1.83;;;1.10;;
9156;SDS011;4613;48.392;9.998;2022-12-26T19:44:50;0.97;;;0.77;;
9156;SDS011;4613;48.392;9.998;2022-12-26T19:47:40;1.13;;;0.93;;
9156;SDS011;4613;48.392;9.998;2022-12-26T19:50:30;1.10;;;0.80;;
9156;SDS011;4613;48.392;9.998;2022-12-26T19:53:21;0.70;;;0.70;;
9156;SDS011;4613;48.392;9.998;2022-12-26T19:56:17;0.90;;;0.90;;
9156;SDS011;4613;48.392;9.998;2022-12-26T19:59:10;0.90;;;0.90;;
9156;SDS011;4613;48.392;9.998;2022-12-26T20:02:04;0.83;;;0.50;;
9156;SDS011;4613;48.392;9.998;2022-12-26T20:04:54;2.00;;;1.20;;
9156;SDS011;4613;48.392;9.998;2022-12-26T20:07:44;0.80;;;0.80;;
9156;SDS011;4613;48.392;9.998;2022-12-26T20:10:37;1.00;;;0.73;;
9156;SDS011;4613;48.392;9.998;2022-12-26T20:13:30;1.87;;;0.97;;
9156;SDS011;4613;48.392;9.998;2022-12-26T20:16:20;2.87;;;1.10;;
9156;SDS011;4613;48.392;9.998;2022-12-26T20:19:10;1.37;;;0.97;;
9156;SDS011;4613;48.392;9.998;2022-12-26T20:22:03;1.30;;;1.20;;
9156;SDS011;4613;48.392;9.998;2022-12-26T20:24:55;1.43;;;1.10;;
9156;SDS011;4613;48.392;9.998;2022-12-26T20:27:49;1.53;;;0.90;;
9156;SDS011;4613;48.392;9.998;2022-12-26T20:30:39;0.60;;;0.53;;
9156;SDS011;4613;48.392;9.998;2022-12-26T20:33:37;0.40;;;0.40;;
9156;SDS011;4613;48.392;9.998;2022-12-26T20:36:29;0.77;;;0.60;;
9156;SDS011;4613;48.392;9.998;2022-12-26T20:39:26;0.43;;;0.43;;
9156;SDS011;4613;48.392;9.998;2022-12-26T20:45:24;0.37;;;0.37;;
9156;SDS011;4613;48.392;9.998;2022-12-26T20:48:14;0.50;;;0.40;;
9156;SDS011;4613;48.392;9.998;2022-12-26T20:51:05;0.43;;;0.23;;
9156;SDS011;4613;48.392;9.998;2022-12-26T20:53:56;0.20;;;0.20;;
9156;SDS011;4613;48.392;9.998;2022-12-26T20:56:46;0.13;;;0.13;;
9156;SDS011;4613;48.392;9.998;2022-12-26T21:02:05;0.63;;;0.63;;
9156;SDS011;4613;48.392;9.998;2022-12-26T21:04:55;0.40;;;0.40;;
9156;SDS011;4613;48.392;9.998;2022-12-26T21:07:47;0.40;;;0.40;;
9156;SDS011;4613;48.392;9.998;2022-12-26T21:10:37;3.13;;;0.90;;
9156;SDS011;4613;48.392;9.998;2022-12-26T21:13:26;0.77;;;0.77;;
9156;SDS011;4613;48.392;9.998;2022-12-26T21:16:20;0.80;;;0.80;;
9156;SDS011;4613;48.392;9.998;2022-12-26T21:19:15;2.97;;;1.77;;
9156;SDS011;4613;48.392;9.998;2022-12-26T21:22:05;1.33;;;0.90;;
9156;SDS011;4613;48.392;9.998;2022-12-26T21:24:54;0.93;;;0.47;;
9156;SDS011;4613;48.392;9.998;2022-12-26T21:27:43;0.60;;;0.60;;
9156;SDS011;4613;48.392;9.998;2022-12-26T21:30:33;1.73;;;1.23;;
9156;SDS011;4613;48.392;9.998;2022-12-26T21:33:23;0.97;;;0.90;;
9156;SDS011;4613;48.392;9.998;2022-12-26T21:36:12;1.20;;;1.10;;
9156;SDS011;4613;48.392;9.998;2022-12-26T21:39:06;0.53;;;0.53;;
9156;SDS011;4613;48.392;9.998;2022-12-26T21:42:00;1.13;;;0.83;;
9156;SDS011;4613;48.392;9.998;2022-12-26T21:44:50;1.20;;;0.80;;
9156;SDS011;4613;48.392;9.998;2022-12-26T21:47:40;1.13;;;0.80;;